createdAt,value
2019-02-26T00:01:24.116Z,19.85
2019-02-26T00:03:50.279Z,23.47
2019-02-26T00:06:20.570Z,28.40
2019-02-26T00:08:49.306Z,33.55
2019-02-26T00:11:16.078Z,31.42
2019-02-26T00:13:44.890Z,16.32
2019-02-26T00:16:15.413Z,24.25
2019-02-26T00:18:42.693Z,19.50
2019-02-26T00:21:10.330Z,22.62
2019-02-26T00:23:39.211Z,30.37
2019-02-26T00:26:10.474Z,28.77
2019-02-26T00:28:37.113Z,25.00
2019-02-26T00:31:05.973Z,22.90
2019-02-26T00:33:33.885Z,28.52
2019-02-26T00:36:04.484Z,29.12
2019-02-26T00:38:33.011Z,22.50
2019-02-26T00:41:02.199Z,26.85
2019-02-26T00:43:30.645Z,20.65
2019-02-26T00:45:58.271Z,22.82
2019-02-26T00:48:25.975Z,27.82
2019-02-26T00:50:56.460Z,21.35
2019-02-26T00:53:23.590Z,23.02
2019-02-26T00:55:54.296Z,23.52
2019-02-26T00:58:20.931Z,20.68
2019-02-26T01:00:49.436Z,23.27
2019-02-26T01:03:17.879Z,20.85
2019-02-26T01:05:46.390Z,23.32
2019-02-26T01:08:15.788Z,20.72
2019-02-26T01:10:44.119Z,19.98
2019-02-26T01:13:12.006Z,18.85
2019-02-26T01:15:40.516Z,23.22
2019-02-26T01:18:08.969Z,22.93
2019-02-26T01:20:37.474Z,23.77
2019-02-26T01:23:05.934Z,25.02
2019-02-26T01:25:38.238Z,26.40
2019-02-26T01:28:04.402Z,23.10
2019-02-26T01:30:35.660Z,28.77
2019-02-26T01:33:03.232Z,34.30
2019-02-26T01:35:30.685Z,32.38
2019-02-26T01:38:00.452Z,39.73
2019-02-26T01:40:27.065Z,34.58
2019-02-26T01:42:57.918Z,32.48
2019-02-26T01:45:25.022Z,31.55
2019-02-26T01:47:52.768Z,29.98
2019-02-26T01:50:20.971Z,29.05
2019-02-26T01:52:51.730Z,37.73
2019-02-26T01:55:20.606Z,31.85
2019-02-26T01:57:47.138Z,35.35
2019-02-26T02:00:16.152Z,40.33
2019-02-26T02:02:44.872Z,35.45
2019-02-26T02:05:13.391Z,33.73
2019-02-26T02:07:41.888Z,28.90
2019-02-26T02:10:11.010Z,27.48
2019-02-26T02:12:41.392Z,29.98
2019-02-26T02:15:10.063Z,33.08
2019-02-26T02:17:38.370Z,29.85
2019-02-26T02:20:07.852Z,29.65
2019-02-26T02:22:35.304Z,27.95
2019-02-26T02:25:03.062Z,25.97
2019-02-26T02:27:33.283Z,28.38
2019-02-26T02:30:00.719Z,29.95
2019-02-26T02:32:31.753Z,27.37
2019-02-26T02:35:00.625Z,25.35
2019-02-26T02:37:29.444Z,23.25
2019-02-26T02:39:55.696Z,20.27
2019-02-26T02:42:24.191Z,24.70
2019-02-26T02:44:52.916Z,20.85
2019-02-26T02:47:21.135Z,25.32
2019-02-26T02:49:49.631Z,25.75
2019-02-26T02:52:18.499Z,25.37
2019-02-26T02:54:47.688Z,28.57
2019-02-26T02:57:15.497Z,30.80
2019-02-26T02:59:43.945Z,36.10
2019-02-26T03:02:14.467Z,28.15
2019-02-26T03:04:41.255Z,26.10
2019-02-26T03:07:09.695Z,23.35
2019-02-26T03:09:40.526Z,24.80
2019-02-26T03:12:06.672Z,23.35
2019-02-26T03:14:38.471Z,23.57
2019-02-26T03:17:06.431Z,22.10
2019-02-26T03:19:35.124Z,24.47
2019-02-26T03:22:01.717Z,24.45
2019-02-26T03:24:31.354Z,25.30
2019-02-26T03:26:58.678Z,25.57
2019-02-26T03:29:27.482Z,23.87
2019-02-26T03:31:55.953Z,26.90
2019-02-26T03:34:25.617Z,29.15
2019-02-26T03:36:53.431Z,23.90
2019-02-26T03:39:22.934Z,31.60
2019-02-26T03:41:53.508Z,26.70
2019-02-26T03:44:21.014Z,27.55
2019-02-26T03:46:49.490Z,26.40
2019-02-26T03:49:17.970Z,30.02
2019-02-26T03:51:46.458Z,29.05
2019-02-26T03:54:40.270Z,24.25
2019-02-26T03:57:11.328Z,32.13
2019-02-26T03:59:37.804Z,28.62
2019-02-26T04:02:07.276Z,29.55
2019-02-26T04:04:34.751Z,33.80
2019-02-26T04:07:04.919Z,30.88
2019-02-26T04:09:31.773Z,30.35
2019-02-26T04:12:00.296Z,31.65
2019-02-26T04:14:30.688Z,26.52
2019-02-26T04:16:58.703Z,29.90
2019-02-26T04:19:26.858Z,34.60
2019-02-26T04:22:15.134Z,28.67
2019-02-26T04:24:41.848Z,26.20
2019-02-26T04:27:44.153Z,27.98
2019-02-26T04:30:25.668Z,29.23
2019-02-26T04:33:11.454Z,25.72
2019-02-26T04:35:57.310Z,22.77
2019-02-26T04:38:48.984Z,27.32
2019-02-26T04:41:22.635Z,31.25
2019-02-26T04:44:19.442Z,35.13
2019-02-26T04:47:06.227Z,29.60
2019-02-26T04:49:38.357Z,30.52
2019-02-26T04:52:05.542Z,26.35
2019-02-26T04:54:33.658Z,32.58
2019-02-26T04:57:00.135Z,32.15
2019-02-26T04:59:29.899Z,29.85
2019-02-26T05:01:57.549Z,29.45
2019-02-26T05:04:27.937Z,26.45
2019-02-26T05:06:54.820Z,26.50
2019-02-26T05:09:25.314Z,29.77
2019-02-26T05:11:53.869Z,26.93
2019-02-26T05:14:23.669Z,29.57
2019-02-26T05:16:50.811Z,24.75
2019-02-26T05:19:21.800Z,33.40
2019-02-26T05:21:47.763Z,28.38
2019-02-26T05:24:18.091Z,24.10
2019-02-26T05:26:45.031Z,25.52
2019-02-26T05:29:13.528Z,26.68
2019-02-26T05:31:43.190Z,25.62
2019-02-26T05:34:12.517Z,26.75
2019-02-26T05:36:42.086Z,28.98
2019-02-26T05:39:08.130Z,27.10
2019-02-26T05:41:37.408Z,25.52
2019-02-26T05:44:08.370Z,24.75
2019-02-26T05:46:35.196Z,25.55
2019-02-26T05:49:06.874Z,28.95
2019-02-26T05:51:33.473Z,21.45
2019-02-26T05:54:02.207Z,24.63
2019-02-26T05:56:29.577Z,24.52
2019-02-26T05:59:02.042Z,25.75
2019-02-26T06:01:27.920Z,23.75
2019-02-26T06:03:56.940Z,22.75
2019-02-26T06:06:25.426Z,23.07
2019-02-26T06:08:55.195Z,27.40
2019-02-26T06:11:22.403Z,27.32
2019-02-26T06:13:50.880Z,25.00
2019-02-26T06:16:21.666Z,23.62
2019-02-26T06:18:49.108Z,23.87
2019-02-26T06:21:18.432Z,25.62
2019-02-26T06:23:48.917Z,24.92
2019-02-26T06:26:18.122Z,26.25
2019-02-26T06:28:48.458Z,23.55
2019-02-26T06:31:17.592Z,24.37
2019-02-26T06:33:45.930Z,27.25
2019-02-26T06:36:13.203Z,26.55
2019-02-26T06:38:41.917Z,27.37
2019-02-26T06:41:10.791Z,23.18
2019-02-26T06:43:39.853Z,27.00
2019-02-26T06:46:09.850Z,24.02
2019-02-26T06:48:37.268Z,28.20
2019-02-26T06:51:07.160Z,24.75
2019-02-26T06:53:34.233Z,28.40
2019-02-26T06:56:02.741Z,29.18
2019-02-26T06:58:31.219Z,29.10
2019-02-26T07:01:00.070Z,26.05
2019-02-26T07:03:28.980Z,27.27
2019-02-26T07:06:01.642Z,31.05
2019-02-26T07:08:30.382Z,29.95
2019-02-26T07:10:55.753Z,29.52
2019-02-26T07:13:24.234Z,30.97
2019-02-26T07:15:55.932Z,33.13
2019-02-26T07:18:24.459Z,38.28
2019-02-26T07:20:57.170Z,37.58
2019-02-26T07:23:22.756Z,23.00
2019-02-26T07:25:51.276Z,22.90
2019-02-26T07:28:20.626Z,26.65
2019-02-26T07:30:48.216Z,28.90
2019-02-26T07:33:17.076Z,26.17
2019-02-26T07:35:45.844Z,31.52
2019-02-26T07:38:16.190Z,26.57
2019-02-26T07:40:42.854Z,31.42
2019-02-26T07:43:14.392Z,30.45
2019-02-26T07:45:39.815Z,22.80
2019-02-26T07:48:08.383Z,23.60
2019-02-26T07:50:39.672Z,21.68
2019-02-26T07:53:05.603Z,23.85
2019-02-26T07:55:35.422Z,24.50
2019-02-26T07:58:02.715Z,23.75
2019-02-26T08:00:32.846Z,19.60
2019-02-26T08:03:00.167Z,25.15
2019-02-26T08:05:28.957Z,22.10
2019-02-26T08:07:57.063Z,24.98
2019-02-26T08:10:25.819Z,23.27
2019-02-26T08:12:56.635Z,24.37
2019-02-26T08:15:23.521Z,24.87
2019-02-26T08:17:57.353Z,25.02
2019-02-26T08:20:20.870Z,30.35
2019-02-26T08:22:51.651Z,27.05
2019-02-26T08:25:18.395Z,23.70
2019-02-26T08:27:49.314Z,22.52
2019-02-26T08:30:18.537Z,22.33
2019-02-26T08:32:48.417Z,21.70
2019-02-26T08:35:12.996Z,20.92
2019-02-26T08:37:43.444Z,21.35
2019-02-26T08:40:12.653Z,21.97
2019-02-26T08:42:41.154Z,21.42
2019-02-26T08:45:12.502Z,20.15
2019-02-26T08:47:39.612Z,21.97
2019-02-26T08:50:12.358Z,21.55
2019-02-26T08:52:40.344Z,20.40
2019-02-26T08:55:10.735Z,19.00
2019-02-26T08:57:38.676Z,25.77
2019-02-26T09:00:16.663Z,26.23
2019-02-26T09:02:46.119Z,20.27
2019-02-26T09:05:13.614Z,21.20
2019-02-26T09:07:43.271Z,20.85
2019-02-26T09:10:12.468Z,21.27
2019-02-26T09:12:41.346Z,20.30
2019-02-26T09:15:09.639Z,19.67
2019-02-26T09:17:41.348Z,18.07
2019-02-26T09:20:11.631Z,22.15
2019-02-26T09:22:37.512Z,17.80
2019-02-26T09:25:05.983Z,15.88
2019-02-26T09:27:42.513Z,20.00
2019-02-26T09:30:05.768Z,18.05
2019-02-26T09:32:32.650Z,17.37
2019-02-26T09:35:04.734Z,19.37
2019-02-26T09:37:31.532Z,21.42
2019-02-26T09:40:02.737Z,19.12
2019-02-26T09:42:30.195Z,19.95
2019-02-26T09:44:57.744Z,20.48
2019-02-26T09:47:30.986Z,21.37
2019-02-26T09:49:58.479Z,21.25
2019-02-26T09:52:27.675Z,21.75
2019-02-26T09:54:55.765Z,18.55
2019-02-26T09:57:26.338Z,24.07
2019-02-26T09:59:57.335Z,18.48
2019-02-26T10:02:24.658Z,26.65
2019-02-26T10:04:52.512Z,23.98
2019-02-26T10:07:20.165Z,22.77
2019-02-26T10:09:48.655Z,19.70
2019-02-26T10:12:18.193Z,19.42
2019-02-26T10:14:49.721Z,22.65
2019-02-26T10:17:19.100Z,20.32
2019-02-26T10:19:45.156Z,19.15
2019-02-26T10:22:13.834Z,19.52
2019-02-26T10:24:42.120Z,16.77
2019-02-26T10:27:11.431Z,21.68
2019-02-26T10:29:41.965Z,18.82
2019-02-26T10:32:11.248Z,15.65
2019-02-26T10:34:36.763Z,23.15
2019-02-26T10:37:05.206Z,21.42
2019-02-26T10:39:33.692Z,20.97
2019-02-26T10:42:02.759Z,19.15
2019-02-26T10:44:31.359Z,18.55
2019-02-26T10:47:01.215Z,16.80
2019-02-26T10:49:28.759Z,16.82
2019-02-26T10:51:57.745Z,18.17
2019-02-26T10:54:25.578Z,20.68
2019-02-26T10:56:54.093Z,17.35
2019-02-26T10:59:23.647Z,16.50
2019-02-26T11:01:55.198Z,20.12
2019-02-26T11:04:21.976Z,20.90
2019-02-26T11:06:50.417Z,17.05
2019-02-26T11:09:25.412Z,16.15
2019-02-26T11:11:47.856Z,16.10
2019-02-26T11:14:17.574Z,17.13
2019-02-26T11:16:45.415Z,15.28
2019-02-26T11:19:14.174Z,16.57
2019-02-26T11:21:42.958Z,16.12
2019-02-26T11:24:11.460Z,16.12
2019-02-26T11:26:40.955Z,13.55
2019-02-26T11:29:08.927Z,13.40
2019-02-26T11:31:39.747Z,14.65
2019-02-26T11:34:10.000Z,14.95
2019-02-26T11:36:38.299Z,18.57
2019-02-26T11:39:06.906Z,15.45
2019-02-26T11:41:35.912Z,16.80
2019-02-26T11:44:07.158Z,14.10
2019-02-26T11:46:34.296Z,13.90
2019-02-26T11:48:59.855Z,13.50
2019-02-26T11:51:36.878Z,16.27
2019-02-26T11:54:00.048Z,17.52
2019-02-26T11:56:27.019Z,15.78
2019-02-26T11:58:55.540Z,16.93
2019-02-26T12:01:24.373Z,15.85
2019-02-26T12:03:55.767Z,15.72
2019-02-26T12:06:23.584Z,18.42
2019-02-26T12:08:52.013Z,17.62
2019-02-26T12:11:23.095Z,17.80
2019-02-26T12:13:53.117Z,17.20
2019-02-26T12:16:19.397Z,17.80
2019-02-26T12:18:47.876Z,16.55
2019-02-26T12:21:16.747Z,19.35
2019-02-26T12:23:46.752Z,15.93
2019-02-26T12:26:16.330Z,16.10
2019-02-26T12:28:42.453Z,16.27
2019-02-26T12:31:13.033Z,19.10
2019-02-26T12:33:41.468Z,16.33
2019-02-26T12:36:10.709Z,15.28
2019-02-26T12:38:39.466Z,17.90
2019-02-26T12:41:09.079Z,19.35
2019-02-26T12:43:42.667Z,16.15
2019-02-26T12:46:08.461Z,17.92
2019-02-26T12:48:37.853Z,16.20
2019-02-26T12:51:04.712Z,17.00
2019-02-26T12:53:46.799Z,18.07
2019-02-26T12:56:12.816Z,16.15
2019-02-26T12:58:45.119Z,14.90
2019-02-26T13:01:10.984Z,16.02
2019-02-26T13:03:42.550Z,15.28
2019-02-26T13:06:09.951Z,18.52
2019-02-26T13:08:39.650Z,15.15
2019-02-26T13:11:05.105Z,9.53
2019-02-26T13:13:34.607Z,7.95
2019-02-26T13:16:03.095Z,7.95
2019-02-26T13:18:31.558Z,9.70
2019-02-26T13:21:03.706Z,10.50
2019-02-26T13:23:29.554Z,7.55
2019-02-26T13:25:58.047Z,9.65
2019-02-26T13:28:29.537Z,8.50
2019-02-26T13:31:01.308Z,9.43
2019-02-26T13:33:33.137Z,10.18
2019-02-26T13:38:24.220Z,11.38
2019-02-26T13:40:49.691Z,16.82
2019-02-26T13:43:18.221Z,10.98
2019-02-26T13:45:46.728Z,14.87
2019-02-26T13:48:15.169Z,10.40
2019-02-26T13:50:43.665Z,10.80
2019-02-26T13:53:13.396Z,12.20
2019-02-26T13:55:41.899Z,14.07
2019-02-26T13:58:12.039Z,9.00
2019-02-26T14:00:39.918Z,9.85
2019-02-26T14:03:08.415Z,10.10
2019-02-26T14:05:38.433Z,9.75
2019-02-26T14:08:05.399Z,12.28
2019-02-26T14:10:34.195Z,7.92
2019-02-26T14:13:03.851Z,19.52
2019-02-26T14:15:31.329Z,9.35
2019-02-26T14:18:00.111Z,9.18
2019-02-26T14:20:28.605Z,11.08
2019-02-26T14:22:57.089Z,10.28
2019-02-26T14:25:26.589Z,7.35
2019-02-26T14:27:55.070Z,9.28
2019-02-26T14:30:23.544Z,9.00
2019-02-26T14:32:52.429Z,13.35
2019-02-26T14:35:21.847Z,8.83
2019-02-26T14:37:50.412Z,13.05
2019-02-26T14:40:18.806Z,9.00
2019-02-26T14:42:47.279Z,10.63
2019-02-26T14:45:15.770Z,13.22
2019-02-26T14:47:45.564Z,11.18
2019-02-26T14:50:14.694Z,15.90
2019-02-26T14:52:43.415Z,10.85
2019-02-26T14:55:12.362Z,11.35
2019-02-26T14:57:41.557Z,10.50
2019-02-26T15:00:11.605Z,10.38
2019-02-26T15:02:40.059Z,10.30
2019-02-26T15:05:08.511Z,10.90
2019-02-26T15:07:37.018Z,11.28
2019-02-26T15:10:05.595Z,12.20
2019-02-26T15:12:34.087Z,10.78
2019-02-26T15:15:02.509Z,13.53
2019-02-26T15:17:31.005Z,10.15
2019-02-26T15:19:59.405Z,11.83
2019-02-26T15:22:28.300Z,13.13
2019-02-26T15:24:57.815Z,14.58
2019-02-26T15:27:35.763Z,13.08
2019-02-26T15:29:54.786Z,11.35
2019-02-26T15:32:23.245Z,11.95
2019-02-26T15:34:51.747Z,12.13
2019-02-26T15:37:20.589Z,14.58
2019-02-26T15:39:51.210Z,12.25
2019-02-26T15:42:19.134Z,11.60
2019-02-26T15:44:46.289Z,15.80
2019-02-26T15:47:15.175Z,14.28
2019-02-26T15:49:43.647Z,23.50
2019-02-26T15:52:12.438Z,21.62
2019-02-26T15:54:40.967Z,15.58
2019-02-26T15:57:09.708Z,18.27
2019-02-26T15:59:38.195Z,12.95
2019-02-26T16:02:06.645Z,12.70
2019-02-26T16:04:35.224Z,13.20
2019-02-26T16:07:04.114Z,13.22
2019-02-26T16:09:32.721Z,13.45
2019-02-26T16:12:01.175Z,14.25
2019-02-26T16:14:29.678Z,14.13
2019-02-26T16:16:58.093Z,14.40
2019-02-26T16:19:27.716Z,13.65
2019-02-26T16:21:57.154Z,15.10
2019-02-26T16:24:25.716Z,15.83
2019-02-26T16:26:54.244Z,17.12
2019-02-26T16:29:22.778Z,14.80
2019-02-26T16:31:51.276Z,19.30
2019-02-26T16:34:20.516Z,20.95
2019-02-26T16:36:48.647Z,19.42
2019-02-26T16:39:17.446Z,15.08
2019-02-26T16:41:47.047Z,13.48
2019-02-26T16:44:18.305Z,15.38
2019-02-26T16:46:46.781Z,17.23
2019-02-26T16:49:15.340Z,21.33
2019-02-26T16:51:43.923Z,18.82
2019-02-26T16:54:13.933Z,21.07
2019-02-26T16:56:43.068Z,20.70
2019-02-26T16:59:12.971Z,21.68
2019-02-26T17:01:41.959Z,18.65
2019-02-26T17:04:10.522Z,24.57
2019-02-26T17:06:39.036Z,22.87
2019-02-26T17:09:07.571Z,27.10
2019-02-26T17:11:36.109Z,25.02
2019-02-26T17:14:04.572Z,21.40
2019-02-26T17:16:33.073Z,24.15
2019-02-26T17:19:01.507Z,24.95
2019-02-26T17:21:30.693Z,28.12
2019-02-26T17:23:58.518Z,25.27
2019-02-26T17:26:30.800Z,36.40
2019-02-26T17:28:57.825Z,37.42
2019-02-26T17:31:28.699Z,38.58
2019-02-26T17:33:55.983Z,29.00
2019-02-26T17:36:24.778Z,23.87
2019-02-26T17:38:53.269Z,18.90
2019-02-26T17:41:22.044Z,18.40
2019-02-26T17:43:50.531Z,21.65
2019-02-26T17:46:20.054Z,17.55
2019-02-26T17:48:48.622Z,26.82
2019-02-26T17:51:19.090Z,18.37
2019-02-26T17:53:45.590Z,12.00
2019-02-26T17:56:14.359Z,15.88
2019-02-26T17:58:43.989Z,15.85
2019-02-26T18:01:12.893Z,18.32
2019-02-26T18:03:47.170Z,15.48
2019-02-26T18:06:16.031Z,12.98
2019-02-26T18:08:44.836Z,13.60
2019-02-26T18:11:13.449Z,13.28
2019-02-26T18:13:41.914Z,13.95
2019-02-26T18:16:10.513Z,19.35
2019-02-26T18:18:43.219Z,19.57
2019-02-26T18:21:11.686Z,15.95
2019-02-26T18:23:40.201Z,21.90
2019-02-26T18:26:08.926Z,13.83
2019-02-26T18:28:37.545Z,15.00
2019-02-26T18:31:06.002Z,14.58
2019-02-26T18:33:36.218Z,19.73
2019-02-26T18:36:05.051Z,15.30
2019-02-26T18:38:33.554Z,15.88
2019-02-26T18:41:02.052Z,11.90
2019-02-26T18:43:30.754Z,13.90
2019-02-26T18:46:00.744Z,11.90
2019-02-26T18:48:27.750Z,18.48
2019-02-26T18:50:56.289Z,17.20
2019-02-26T18:53:26.018Z,15.93
2019-02-26T18:55:53.273Z,17.27
2019-02-26T18:58:22.095Z,12.65
2019-02-26T19:00:51.566Z,13.10
2019-02-26T19:03:20.058Z,17.65
2019-02-26T19:05:48.821Z,13.70
2019-02-26T19:08:18.955Z,12.30
2019-02-26T19:10:45.830Z,15.80
2019-02-26T19:13:14.311Z,18.32
2019-02-26T19:15:47.759Z,15.90
2019-02-26T19:18:11.993Z,16.77
2019-02-26T19:20:40.422Z,18.67
2019-02-26T19:23:08.930Z,15.98
2019-02-26T19:25:41.466Z,21.20
2019-02-26T19:28:05.878Z,18.45
2019-02-26T19:30:36.779Z,20.77
2019-02-26T19:33:03.912Z,15.18
2019-02-26T19:35:38.150Z,31.27
2019-02-26T19:38:01.947Z,35.08
2019-02-26T19:40:31.983Z,17.40
2019-02-26T19:43:00.334Z,20.02
2019-02-26T19:45:32.825Z,17.50
2019-02-26T19:48:01.685Z,19.12
2019-02-26T19:50:30.955Z,21.45
2019-02-26T19:53:02.275Z,14.68
2019-02-26T19:55:29.241Z,15.68
2019-02-26T19:57:58.051Z,15.48
2019-02-26T20:00:26.570Z,22.85
2019-02-26T20:02:55.028Z,15.05
2019-02-26T20:05:23.585Z,16.17
2019-02-26T20:07:53.196Z,18.55
2019-02-26T20:10:20.601Z,14.33
2019-02-26T20:12:50.105Z,18.67
2019-02-26T20:15:21.695Z,14.53
2019-02-26T20:17:49.147Z,16.17
2019-02-26T20:20:16.787Z,13.83
2019-02-26T20:22:44.768Z,17.20
2019-02-26T20:25:15.382Z,13.08
2019-02-26T20:27:44.856Z,17.40
2019-02-26T20:30:14.794Z,15.00
2019-02-26T20:32:43.539Z,16.65
2019-02-26T20:35:12.588Z,21.17
2019-02-26T20:37:40.547Z,14.53
2019-02-26T20:40:13.797Z,17.07
2019-02-26T20:42:39.866Z,20.17
2019-02-26T20:45:10.870Z,18.17
2019-02-26T20:47:39.614Z,13.65
2019-02-26T20:50:08.143Z,20.80
2019-02-26T20:52:45.598Z,18.25
2019-02-26T20:55:18.825Z,17.55
2019-02-26T20:57:44.776Z,19.42
2019-02-26T21:00:25.004Z,18.23
2019-02-26T21:02:56.350Z,16.97
2019-02-26T21:05:25.140Z,13.20
2019-02-26T21:07:58.096Z,18.67
2019-02-26T21:10:22.206Z,14.37
2019-02-26T21:12:50.697Z,20.82
2019-02-26T21:15:19.184Z,15.05
2019-02-26T21:17:48.047Z,18.23
2019-02-26T21:20:17.654Z,15.20
2019-02-26T21:22:46.871Z,19.15
2019-02-26T21:25:15.324Z,20.43
2019-02-26T21:27:43.866Z,20.85
2019-02-26T21:30:13.351Z,20.37
2019-02-26T21:32:41.815Z,16.75
2019-02-26T21:35:10.291Z,18.70
2019-02-26T21:37:39.068Z,14.53
2019-02-26T21:40:07.887Z,20.55
2019-02-26T21:42:36.440Z,16.57
2019-02-26T21:45:04.850Z,17.42
2019-02-26T21:47:33.303Z,16.37
2019-02-26T21:50:02.185Z,19.35
2019-02-26T21:52:30.678Z,13.93
2019-02-26T21:55:01.295Z,18.20
2019-02-26T21:57:27.948Z,21.40
2019-02-26T21:59:56.439Z,15.78
2019-02-26T22:02:24.905Z,22.10
2019-02-26T22:04:54.415Z,15.72
2019-02-26T22:07:22.896Z,16.55
2019-02-26T22:09:51.775Z,17.52
2019-02-26T22:12:21.825Z,18.57
2019-02-26T22:14:48.762Z,18.77
2019-02-26T22:17:17.700Z,18.23
2019-02-26T22:19:46.154Z,15.58
2019-02-26T22:22:14.601Z,17.02
2019-02-26T22:24:46.753Z,18.57
2019-02-26T22:27:15.183Z,18.73
2019-02-26T22:29:47.961Z,23.95
2019-02-26T22:32:18.676Z,24.70
2019-02-26T22:34:47.754Z,21.73
2019-02-26T22:37:16.843Z,18.32
2019-02-26T22:39:45.379Z,17.30
2019-02-26T22:42:14.396Z,16.80
2019-02-26T22:44:42.917Z,17.73
2019-02-26T22:47:13.552Z,16.35
2019-02-26T22:49:40.603Z,20.97
2019-02-26T22:52:09.073Z,18.60
2019-02-26T22:54:37.592Z,17.62
2019-02-26T22:57:06.645Z,19.37
2019-02-26T22:59:35.169Z,19.65
2019-02-26T23:02:03.744Z,20.88
2019-02-26T23:04:32.329Z,18.98
2019-02-26T23:07:04.422Z,19.27
2019-02-26T23:09:29.918Z,18.07
2019-02-26T23:11:58.464Z,22.02
2019-02-26T23:14:26.980Z,18.77
2019-02-26T23:16:55.498Z,19.90
2019-02-26T23:19:24.048Z,21.93
2019-02-26T23:21:52.510Z,21.50
2019-02-26T23:24:20.989Z,21.40
2019-02-26T23:26:50.447Z,27.87
2019-02-26T23:29:18.883Z,22.80
2019-02-26T23:31:48.075Z,22.17
2019-02-26T23:34:16.756Z,17.23
2019-02-26T23:36:45.213Z,20.85
2019-02-26T23:39:14.060Z,20.92
2019-02-26T23:41:42.822Z,21.02
2019-02-26T23:44:11.262Z,20.40
2019-02-26T23:46:39.743Z,23.75
2019-02-26T23:49:08.229Z,22.37
2019-02-26T23:51:36.700Z,25.93
2019-02-26T23:54:07.284Z,27.17
2019-02-26T23:56:33.654Z,20.23
2019-02-26T23:59:04.165Z,23.62
